Forside
METAR-TAF:

METAR-TAF

Lufthavne :

Incheon International Airport

Seoul-Incheon, Sydkorea

Breddekreds: 37-28N, længdekreds: 126-27E, højde: 7 m

Aktuelle vejr

Denne rapport blev lavet for 32 minutter siden, kl. 20:30 UTC
Vind 7 kt fra nordøst
Temperatur 28°C
Fugtighed 74%
Tryk 1008 hPa
Sigt 10 km eller mere
ingen skyer under 1500m og ingen cumulonimbus

METAR: RKSI 142030Z 05007KT CAVOK 28/23 Q1008 NOSIG

Tid: 06:02 (21:02 UTC)

Vejrudsigter

Denne rapport blev lavet for 4 timer og 2 minutter siden, kl. 17:00 UTC
Foreløbig gælder fra 14 på 18 UTC til 15 på 24 UTC
Vind 7 kt fra østnordøst
Sigt: 7000 m
Spredte skyer i en højde af 3000 ft
ændring
fra 15 på 03 UTC til 15 på 04 UTC
Vind 8 kt fra nordnordvest
ændring
fra 15 på 10 UTC til 15 på 11 UTC
Vind 7 kt fra øst

TAF: RKSI 141700Z 1418/1524 07007KT 7000 SCT030 TN27/1421Z TX34/1505Z TN26/1521Z BECMG 1503/1504 33008KT BECMG 1510/1511 08007KT

Vejrobservationer og prognoser fra mere end 4000 lufthavne (METAR og TAF).

De gule og røde prikker repræsenterer de meteorologiske stationer.

Flyt musen over at se navnet på stationen.

Så klik over at se vejr observationer og prognoser.

At skifte det kort: Klik på de grønne knapper med et sort kors for at zoome ind; på den grønne knap med en bindestreg for at zoome ud; eller på de grønne pile for tilstødende kort.


METAR-TAF: